M I D A S
Marine Information and Data Acquisition System
Tripno 441 of the Zeeleeuw from 2003-02-26 07:37:27 to 2003-02-26 17:27:41
Back to CruiseResearch ActivitiesStationsMapUnderway DataData graphs

EquipmentUnitsComment
TimeDGPSUTC
LatitudeDGPSDM.mWGS84
LongitudeDGPSDM.mWGS84
TemperatureSBE03/SBE38deg celciusITS90
ConductivitySBE21S/mITS90
SalinitySBE21 Practical Salinity Units
ChlorophylAChelsea fluorimeterg/lCalibrated in Aceton
Missing or incorrect values are displayed as -999
Sea surface data collected by the RV Zeeleeuw from 2003-02-26 07:37:27 to 2003-02-26 17:27:41
Time Latitude Longitude Temperature Conductivity Salinity ChlorophylA
2003-02-26 07:38:28 51°13.595 2°56.1 10.598649 0.079428 0.431239 -0.511574
2003-02-26 07:39:29 51°13.616 2°56.025 4.595781 2.67923 25.969548 7.005623
2003-02-26 07:40:28 51°13.628 2°55.973 4.029745 2.51813 25.702381 7.612392
2003-02-26 07:41:29 51°13.66 2°55.877 3.845086 2.512771 25.972021 7.443845
2003-02-26 07:42:28 51°13.692 2°55.781 3.761189 2.529913 26.427894 8.960768
2003-02-26 07:43:28 51°13.699 2°55.755 3.767603 2.439598 25.42952 9.533828
2003-02-26 07:44:28 51°13.693 2°55.742 3.780636 2.341314 24.294205 9.4327
2003-02-26 07:45:29 51°13.694 2°55.737 3.734544 2.387773 24.834427 9.870922
2003-02-26 07:46:28 51°13.728 2°55.717 3.702244 2.403541 25.053758 10.073178
2003-02-26 07:47:28 51°13.809 2°55.651 3.684327 2.425301 25.337071 10.781076
2003-02-26 07:48:28 51°13.924 2°55.566 3.670498 2.403121 25.095418 9.163024
2003-02-26 07:49:28 51°14.041 2°55.48 -999 2.371166 24.746077 7.71352
2003-02-26 07:50:29 51°14.161 2°55.388 -999 2.372953 24.761108 6.634819
2003-02-26 07:51:28 51°14.263 2°55.263 -999 2.410795 25.221826 6.870785
2003-02-26 07:52:29 51°14.345 2°55.094 -999 2.35088 24.534283 7.17417
2003-02-26 07:53:28 51°14.477 2°54.942 -999 2.505836 26.337071 6.634819
2003-02-26 07:54:28 51°14.656 2°54.831 -999 2.703869 28.579684 5.758375
2003-02-26 07:55:28 51°14.83 2°54.696 -999 2.730274 28.980435 5.421281
2003-02-26 07:56:28 51°15.005 2°54.565 -999 2.742794 29.178751 4.780802
2003-02-26 07:57:29 51°15.186 2°54.435 -999 2.732695 29.085219 4.443708
2003-02-26 07:58:28 51°15.37 2°54.337 -999 2.735009 29.122745 4.140324
2003-02-26 07:59:29 51°15.562 2°54.242 -999 2.745214 29.244027 3.80323
2003-02-26 08:00:28 51°15.756 2°54.195 -999 2.737429 29.166347 3.668392
2003-02-26 08:01:28 51°15.94 2°54.156 -999 2.754156 29.347341 3.499845
2003-02-26 08:02:28 51°16.103 2°54.15 -999 2.75079 29.314281 3.263879
2003-02-26 08:03:28 51°16.207 2°54.32 -999 2.73017 29.050844 3.263879
2003-02-26 08:04:28 51°16.271 2°54.515 9.24831 2.74574 29.253414 3.702101
2003-02-26 08:05:28 51°16.351 2°54.534 8.586994 2.741216 29.206768 3.297589
2003-02-26 08:06:28 51°16.383 2°54.48 8.108079 2.74069 29.202202 3.162751
2003-02-26 08:07:28 51°16.38 2°54.442 7.797972 2.73785 29.168076 3.129042
2003-02-26 08:08:28 51°16.364 2°54.423 8.363905 2.755524 29.374696 3.027913
2003-02-26 08:09:28 51°16.334 2°54.404 8.376794 2.753104 29.347901 2.994204
2003-02-26 08:10:28 51°16.31 2°54.376 8.03033 2.752473 29.348561 3.027913
2003-02-26 08:11:28 51°16.299 2°54.341 8.469447 2.761731 29.449206 3.162751
2003-02-26 08:12:28 51°16.293 2°54.311 3.472245 2.747002 29.27547 3.162751
2003-02-26 08:13:28 51°16.287 2°54.288 3.476714 2.750895 29.325191 2.926785
2003-02-26 08:14:28 51°16.278 2°54.275 3.488353 2.749422 29.299841 2.960494
2003-02-26 08:15:28 51°16.268 2°54.268 3.486742 2.761731 29.439491 2.893076
2003-02-26 08:16:28 51°16.26 2°54.269 3.489496 2.754998 29.358025 2.960494
2003-02-26 08:17:28 51°16.25 2°54.273 3.495626 2.741426 29.195589 2.994204
2003-02-26 08:18:28 51°16.241 2°54.281 3.492821 2.766676 29.493504 2.926785
2003-02-26 08:19:28 51°16.232 2°54.291 3.496197 2.757102 29.380299 2.994204
2003-02-26 08:20:29 51°16.223 2°54.303 3.49521 2.763309 29.450735 3.027913
2003-02-26 08:21:28 51°16.214 2°54.317 3.495989 2.758364 29.392694 3.061623
2003-02-26 08:22:28 51°16.206 2°54.333 3.496717 2.744898 29.23711 3.162751
2003-02-26 08:23:28 51°16.148 2°54.341 3.477909 2.763519 29.458872 3.095332
2003-02-26 08:24:29 51°16.072 2°54.227 3.496717 2.758785 29.405714 3.331298
2003-02-26 08:25:28 51°16.071 2°53.977 3.495626 2.764151 29.462235 3.466136
2003-02-26 08:26:29 51°16.162 2°53.659 3.507521 2.759837 29.403516 3.331298
2003-02-26 08:27:28 51°16.328 2°53.412 3.518842 2.778354 29.613586 3.095332
2003-02-26 08:28:28 51°16.521 2°53.195 3.516713 2.782667 29.656915 3.027913
2003-02-26 08:29:29 51°16.722 2°52.986 3.513961 2.782457 29.658516 2.859366
2003-02-26 08:30:28 51°16.917 2°52.79 3.511728 2.782352 29.659724 2.690819
2003-02-26 08:31:28 51°17.117 2°52.587 3.532498 2.789085 29.722495 2.825657
2003-02-26 08:32:28 51°17.315 2°52.381 3.61437 2.800553 29.850643 2.758238
2003-02-26 08:33:28 51°17.516 2°52.18 3.80173 2.862317 30.397097 3.735811
2003-02-26 08:34:28 51°17.729 2°52.01 3.819613 2.883783 30.584437 3.80323
2003-02-26 08:35:28 51°17.942 2°51.839 3.847358 2.875469 30.451546 3.80323
2003-02-26 08:36:29 51°18.162 2°51.674 3.782342 2.893254 30.693612 3.162751
2003-02-26 08:37:28 51°18.38 2°51.541 3.823489 2.890202 30.674589 3.061623
2003-02-26 08:38:28 51°18.525 2°51.367 3.807416 2.89378 30.703949 2.454853
2003-02-26 08:39:28 51°18.502 2°51.217 3.781411 2.890308 30.661626 2.421144
2003-02-26 08:40:29 51°18.497 2°51.108 3.76031 2.885046 30.63674 2.522272
2003-02-26 08:41:29 51°18.484 2°51.041 3.749808 2.881048 30.603239 2.353725
2003-02-26 08:42:28 51°18.477 2°51.024 3.762224 2.880942 30.597834 2.252597
2003-02-26 08:43:28 51°18.473 2°51.018 3.765069 2.881574 30.600227 2.252597
2003-02-26 08:44:28 51°18.471 2°51.019 3.767293 2.881994 30.602656 2.286306
2003-02-26 08:45:28 51°18.471 2°51.024 3.762586 2.882942 30.612083 2.387435
2003-02-26 08:46:29 51°18.471 2°51.033 3.761655 2.882521 30.607986 2.421144
2003-02-26 08:47:29 51°18.474 2°51.043 3.749757 2.882416 30.618436 2.387435
2003-02-26 08:48:28 51°18.477 2°51.055 3.74748 2.881784 30.614376 2.387435
2003-02-26 08:49:29 51°18.481 2°51.069 3.748618 2.8821 30.618076 2.353725
2003-02-26 08:50:29 51°18.485 2°51.083 3.747118 2.881995 30.618513 2.353725
2003-02-26 08:51:29 51°18.49 2°51.098 3.746394 2.881784 30.615211 2.454853
2003-02-26 08:52:29 51°18.486 2°51.113 3.746704 2.881889 30.618114 2.421144
2003-02-26 08:53:29 51°18.436 2°51.186 3.763414 2.882837 30.62671 2.387435
2003-02-26 08:54:29 51°18.444 2°51.408 3.755292 2.882415 30.612594 2.185178
2003-02-26 08:55:28 51°18.52 2°51.746 3.776861 2.885678 30.642467 2.555982
2003-02-26 08:56:28 51°18.606 2°52.121 3.820957 2.888624 30.657774 2.488563
2003-02-26 08:57:29 51°18.698 2°52.502 3.805348 2.896411 30.719701 2.859366
2003-02-26 08:58:29 51°18.788 2°52.876 3.807933 2.896411 30.721372 2.724529
2003-02-26 08:59:28 51°18.876 2°53.244 3.719276 2.889466 30.661787 2.6234
2003-02-26 09:00:29 51°18.968 2°53.625 3.746808 2.864948 30.458655 2.825657
2003-02-26 09:01:29 51°19.06 2°53.999 3.702037 2.862212 30.431561 2.926785
2003-02-26 09:02:29 51°19.15 2°54.374 3.701571 2.861791 30.414995 2.893076
2003-02-26 09:03:29 51°19.241 2°54.748 3.655059 2.854109 30.343193 2.791947
2003-02-26 09:04:29 51°19.33 2°55.123 3.627642 2.838326 30.201109 2.6234
2003-02-26 09:05:29 51°19.421 2°55.496 3.630182 2.831276 30.136551 2.555982
2003-02-26 09:06:29 51°19.511 2°55.867 3.630338 2.834643 30.162856 2.6234
2003-02-26 09:07:28 51°19.6 2°56.233 3.59845 2.822859 30.057537 2.522272
2003-02-26 09:08:29 51°19.694 2°56.612 3.578791 2.821807 30.052596 2.488563
2003-02-26 09:09:29 51°19.784 2°56.984 3.553625 2.814126 29.989555 2.454853
2003-02-26 09:10:29 51°19.875 2°57.356 3.537846 2.809917 29.963135 2.522272
2003-02-26 09:11:29 51°19.967 2°57.726 3.550459 2.810128 29.954919 2.555982
2003-02-26 09:12:29 51°20.058 2°58.097 3.558711 2.806656 29.910024 2.589691
2003-02-26 09:13:28 51°20.147 2°58.463 3.577443 2.814757 29.976417 2.758238
2003-02-26 09:14:29 51°20.238 2°58.839 3.563174 2.807287 29.899393 2.825657
2003-02-26 09:15:29 51°20.328 2°59.21 3.548746 2.798659 29.816123 2.960494
2003-02-26 09:16:29 51°20.418 2°59.582 3.559541 2.798449 29.812834 2.994204
2003-02-26 09:17:29 51°20.507 2°59.953 3.586417 2.804341 29.864813 3.027913
2003-02-26 09:18:29 51°20.595 3°0.323 3.558867 2.80634 29.88418 2.926785
2003-02-26 09:19:29 51°20.682 3°0.695 3.547397 2.795503 29.781518 2.926785
2003-02-26 09:20:29 51°20.77 3°1.068 3.55321 2.796029 29.786877 3.095332
2003-02-26 09:21:29 51°20.856 3°1.438 3.547085 2.798133 29.813218 3.23017
2003-02-26 09:22:29 51°20.943 3°1.809 3.534731 2.800974 29.853948 3.297589
2003-02-26 09:23:29 51°21.029 3°2.182 3.523879 2.787507 29.708857 2.825657
2003-02-26 09:24:29 51°21.117 3°2.554 3.518739 2.784982 29.684096 3.027913
2003-02-26 09:25:29 51°21.203 3°2.925 3.506274 2.785297 29.695958 3.263879
2003-02-26 09:26:29 51°21.288 3°3.294 3.498639 2.784456 29.69586 3.432426
2003-02-26 09:27:29 51°21.369 3°3.668 3.494535 2.782773 29.680974 3.23017
2003-02-26 09:28:29 51°21.446 3°4.046 3.494275 2.773093 29.568878 2.724529
2003-02-26 09:29:29 51°21.524 3°4.425 3.490275 2.771831 29.559736 2.994204
2003-02-26 09:30:29 51°21.6 3°4.805 3.49121 2.770358 29.543244 2.960494
2003-02-26 09:31:29 51°21.644 3°5.193 3.495002 2.76878 29.523083 2.893076
2003-02-26 09:32:29 51°21.685 3°5.583 3.495158 2.770147 29.532653 3.19646
2003-02-26 09:33:29 51°21.726 3°5.971 3.496717 2.767622 29.504623 3.095332
2003-02-26 09:34:29 51°21.777 3°6.356 3.501963 2.764571 29.467176 3.398717
2003-02-26 09:35:29 51°21.876 3°6.72 3.507936 2.761836 29.427783 3.365007
2003-02-26 09:36:29 51°21.976 3°7.087 3.513857 2.763414 29.440643 3.263879
2003-02-26 09:37:29 51°22.084 3°7.443 3.519206 2.762888 29.430427 3.129042
2003-02-26 09:38:29 51°22.184 3°7.768 3.519154 2.763414 29.434174 3.095332
2003-02-26 09:39:29 51°22.27 3°8.048 3.523879 2.764045 29.439963 3.061623
2003-02-26 09:40:29 51°22.356 3°8.327 3.533225 2.764361 29.438007 2.994204
2003-02-26 09:41:29 51°22.467 3°8.585 3.542673 2.76636 29.454177 3.095332
2003-02-26 09:42:29 51°22.649 3°8.688 3.526579 2.766675 29.458688 2.758238
2003-02-26 09:43:29 51°22.882 3°8.773 3.50991 2.772567 29.544022 3.129042
2003-02-26 09:44:29 51°23.082 3°8.999 3.50669 2.772988 29.552209 2.6234
2003-02-26 09:45:29 51°23.139 3°9.372 3.525281 2.77162 29.54021 2.589691
2003-02-26 09:46:29 51°23.093 3°9.755 3.512195 2.774882 29.572007 2.6234
2003-02-26 09:47:29 51°23.048 3°10.141 3.515623 2.774461 29.566254 2.690819
2003-02-26 09:48:29 51°23.002 3°10.527 3.523827 2.773619 29.553937 2.859366
2003-02-26 09:49:29 51°22.954 3°10.914 3.529643 2.773093 29.541272 2.791947
2003-02-26 09:50:29 51°22.906 3°11.299 3.541998 2.772882 29.531504 3.162751
2003-02-26 09:51:29 51°22.863 3°11.683 3.549681 2.772988 29.520583 3.600973
2003-02-26 09:52:29 51°22.832 3°12.071 3.550096 2.773093 29.517767 3.365007
2003-02-26 09:53:29 51°22.804 3°12.46 3.566547 2.77425 29.537011 3.331298
2003-02-26 09:54:29 51°22.787 3°12.819 3.568259 2.77162 29.486743 3.331298
2003-02-26 09:55:29 51°22.743 3°13.085 3.567948 2.770778 29.478496 3.466136
2003-02-26 09:56:29 51°22.627 3°13.182 3.569868 2.770568 29.470373 3.297589
2003-02-26 09:57:29 51°22.553 3°13.205 3.549992 2.764781 29.417097 3.533554
2003-02-26 09:58:29 51°22.546 3°13.215 3.548123 2.762888 29.397323 3.533554
2003-02-26 09:59:29 51°22.545 3°13.228 3.546774 2.7692 29.476168 3.904358
2003-02-26 10:00:29 51°22.543 3°13.232 3.550459 2.772251 29.511946 3.938067
2003-02-26 10:01:29 51°22.542 3°13.228 3.581904 2.771409 29.494792 3.80323
2003-02-26 10:02:29 51°22.544 3°13.216 3.564886 2.764992 29.412302 3.263879
2003-02-26 10:03:29 51°22.553 3°13.203 3.569712 2.76436 29.405712 3.095332
2003-02-26 10:04:29 51°22.568 3°13.19 3.571424 2.762677 29.377932 2.926785
2003-02-26 10:05:29 51°22.588 3°13.185 3.570335 2.758153 29.327362 2.926785
2003-02-26 10:06:29 51°22.609 3°13.189 3.56224 2.756786 29.31456 3.095332
2003-02-26 10:07:29 51°22.629 3°13.199 3.56499 2.757627 29.32683 3.263879
2003-02-26 10:08:29 51°22.665 3°13.229 3.564212 2.757943 29.325702 3.263879
2003-02-26 10:09:29 51°22.752 3°13.346 3.561306 2.759521 29.344184 3.23017
2003-02-26 10:10:29 51°22.917 3°13.562 3.577494 2.770988 29.483388 3.365007
2003-02-26 10:11:29 51°23.099 3°13.811 3.572047 2.774355 29.521233 3.23017
2003-02-26 10:12:29 51°23.283 3°14.062 3.56499 2.778037 29.562782 2.994204
2003-02-26 10:13:29 51°23.463 3°14.318 3.578947 2.788979 29.68703 3.432426
2003-02-26 10:14:29 51°23.643 3°14.573 3.572254 2.792767 29.729829 3.297589
2003-02-26 10:15:29 51°23.824 3°14.825 3.570594 2.795608 29.763971 3.19646
2003-02-26 10:16:29 51°24.004 3°15.079 3.560579 2.796239 29.776276 3.162751
2003-02-26 10:17:29 51°24.184 3°15.33 3.565457 2.795608 29.773767 3.297589
2003-02-26 10:18:29 51°24.366 3°15.579 3.572825 2.795818 29.768888 3.567264
2003-02-26 10:19:29 51°24.547 3°15.826 3.574382 2.795292 29.757004 3.331298
2003-02-26 10:20:29 51°24.726 3°16.076 3.589063 2.787401 29.657949 3.466136
2003-02-26 10:21:29 51°24.895 3°16.346 3.591864 2.780036 29.56514 3.432426
2003-02-26 10:22:29 51°25.057 3°16.631 3.577546 2.785086 29.62513 3.19646
2003-02-26 10:23:29 51°25.216 3°16.923 3.572773 2.797081 29.775538 2.6234
2003-02-26 10:24:29 51°25.375 3°17.208 3.56224 2.809917 29.93766 2.522272
2003-02-26 10:25:29 51°25.53 3°17.499 3.571424 2.806761 29.898136 2.387435
2003-02-26 10:26:29 51°25.673 3°17.798 3.584654 2.806129 29.891544 2.353725
2003-02-26 10:27:29 51°25.785 3°18.021 3.57075 2.806024 29.875562 2.252597
2003-02-26 10:28:28 51°25.873 3°18.085 3.61914 2.803814 29.833282 1.780665
2003-02-26 10:29:29 51°25.928 3°18.036 3.587403 2.804551 29.840284 2.016631
2003-02-26 10:30:29 51°25.94 3°17.975 3.579362 2.809812 29.920833 2.151469
2003-02-26 10:31:29 51°25.936 3°17.938 3.57874 2.810759 29.936871 2.218888
2003-02-26 10:32:29 51°25.928 3°17.918 3.581749 2.811074 29.938935 2.117759
2003-02-26 10:33:29 51°25.919 3°17.903 3.621214 2.812547 29.942274 1.982922
2003-02-26 10:34:28 51°25.91 3°17.888 3.615044 2.812547 29.921778 1.679537
2003-02-26 10:35:29 51°25.899 3°17.871 3.606437 2.812021 29.924622 1.612118
2003-02-26 10:36:29 51°25.889 3°17.854 3.611 2.812547 29.932432 1.612118
2003-02-26 10:37:29 51°25.879 3°17.836 7.03754 2.812547 29.931613 1.51099
2003-02-26 10:38:29 51°25.845 3°17.772 7.018631 2.811811 29.927072 1.5447
2003-02-26 10:39:29 51°25.812 3°17.508 7.297028 2.812653 29.950074 2.151469
2003-02-26 10:40:29 51°25.781 3°17.157 7.368295 2.817703 30.020877 2.286306
2003-02-26 10:41:29 51°25.752 3°16.796 7.420106 2.817703 30.005247 2.185178
2003-02-26 10:42:29 51°25.723 3°16.433 6.774822 2.820334 30.046006 2.286306
2003-02-26 10:43:29 51°25.696 3°16.068 8.171262 2.824016 30.08431 2.185178
2003-02-26 10:44:29 51°25.67 3°15.704 7.775889 2.828751 30.14736 2.320016
2003-02-26 10:45:29 51°25.644 3°15.34 7.285632 2.831382 30.174961 2.252597
2003-02-26 10:46:29 51°25.618 3°14.976 7.795788 2.831171 30.187383 2.252597
2003-02-26 10:47:29 51°25.592 3°14.61 7.321721 2.831277 30.196902 2.08405
2003-02-26 10:48:29 51°25.565 3°14.243 7.187481 2.831172 30.19318 1.982922
2003-02-26 10:49:29 51°25.539 3°13.873 6.472235 2.82791 30.156485 2.218888
2003-02-26 10:50:29 51°25.518 3°13.5 7.442702 2.828962 30.163891 2.151469
2003-02-26 10:51:29 51°25.505 3°13.126 7.194486 2.829488 30.166766 2.218888
2003-02-26 10:52:29 51°25.531 3°12.753 7.732963 2.830856 30.182017 2.218888
2003-02-26 10:53:29 51°25.571 3°12.384 7.485921 2.828436 30.137867 2.185178
2003-02-26 10:54:28 51°25.61 3°12.022 7.524188 2.828962 30.160582 2.286306
2003-02-26 10:55:29 51°25.652 3°11.65 6.747647 2.826857 30.140808 2.454853
2003-02-26 10:56:29 51°25.734 3°11.327 7.176065 2.830119 30.177497 2.488563
2003-02-26 10:57:29 51°25.908 3°11.078 6.923463 2.834433 30.209161 2.050341
2003-02-26 10:58:29 51°26.054 3°10.794 6.935121 2.83738 30.259544 2.252597
2003-02-26 10:59:29 51°26.123 3°10.437 6.969541 2.832539 30.180288 2.218888
2003-02-26 11:00:29 51°26.201 3°10.08 7.143079 2.832329 30.180297 2.252597
2003-02-26 11:01:29 51°26.279 3°9.723 7.01814 2.832223 30.178234 2.421144
2003-02-26 11:02:29 51°26.357 3°9.367 7.057032 2.831592 30.177433 2.488563
2003-02-26 11:03:29 51°26.433 3°9.031 7.13347 2.825069 30.110697 2.151469
2003-02-26 11:04:29 51°26.479 3°8.806 6.115758 2.817388 30.055078 2.050341
2003-02-26 11:05:29 51°26.494 3°8.655 6.778717 2.819387 30.07611 1.780665
2003-02-26 11:06:29 51°26.486 3°8.564 6.753172 2.823806 30.113203 1.645828
2003-02-26 11:07:28 51°26.473 3°8.507 7.124447 2.826752 30.140398 1.679537
2003-02-26 11:08:29 51°26.461 3°8.453 6.913426 2.827804 30.148632 1.713247
2003-02-26 11:09:29 51°26.463 3°8.417 6.350687 2.828015 30.153586 2.016631
2003-02-26 11:10:29 51°26.471 3°8.399 6.3821 2.828646 30.165972 2.218888
2003-02-26 11:11:29 51°26.479 3°8.378 6.951694 2.830856 30.166298 2.117759
2003-02-26 11:12:29 51°26.487 3°8.36 6.524384 2.831908 30.167911 2.151469
2003-02-26 11:13:29 51°26.493 3°8.344 7.281914 2.830856 30.178706 2.252597
2003-02-26 11:14:28 51°26.499 3°8.331 7.088688 2.83033 30.172523 2.185178
2003-02-26 11:15:29 51°26.481 3°8.305 7.309987 2.830435 30.168796 2.117759
2003-02-26 11:16:29 51°26.477 3°8.211 7.507373 2.830224 30.158055 1.915503
2003-02-26 11:17:29 51°26.533 3°8.063 7.563309 2.832224 30.188989 2.252597
2003-02-26 11:18:29 51°26.595 3°7.9 7.54173 2.834854 30.213279 2.252597
2003-02-26 11:19:28 51°26.658 3°7.737 7.554444 2.83538 30.210353 2.117759
2003-02-26 11:20:29 51°26.723 3°7.565 7.092809 2.838642 30.247018 2.151469
2003-02-26 11:21:29 51°26.791 3°7.401 7.114933 2.843798 30.309264 2.286306
2003-02-26 11:22:29 51°26.853 3°7.232 6.461533 2.848007 30.318859 1.814375
2003-02-26 11:23:29 51°26.92 3°7.066 6.866766 2.850217 30.362249 2.286306
2003-02-26 11:24:29 51°26.982 3°6.896 7.061843 2.854846 30.404159 2.320016
2003-02-26 11:25:29 51°27.043 3°6.726 6.693904 2.85632 30.435624 2.522272
2003-02-26 11:26:29 51°27.109 3°6.559 6.977062 2.860844 30.483796 2.65711
2003-02-26 11:27:29 51°27.172 3°6.39 7.45651 2.863791 30.519262 2.65711
2003-02-26 11:28:29 51°27.239 3°6.224 7.279126 2.865685 30.531497 2.589691
2003-02-26 11:29:28 51°27.3 3°6.059 6.98409 2.868421 30.532733 2.252597
2003-02-26 11:30:29 51°27.367 3°5.893 6.35972 2.864527 30.49119 2.252597
2003-02-26 11:31:29 51°27.43 3°5.727 7.541632 2.864211 30.477484 2.016631
2003-02-26 11:32:29 51°27.5 3°5.567 6.594244 2.865053 30.480699 2.016631
2003-02-26 11:33:29 51°27.567 3°5.403 6.353615 2.867263 30.50163 1.780665
2003-02-26 11:34:29 51°27.636 3°5.243 6.823718 2.86842 30.503545 1.645828
2003-02-26 11:35:29 51°27.696 3°5.077 6.783796 2.868631 30.488527 1.578409
2003-02-26 11:36:29 51°27.764 3°4.917 6.227562 2.87989 30.616389 1.915503
2003-02-26 11:37:29 51°27.825 3°4.755 6.957447 2.861896 30.394654 1.308734
2003-02-26 11:38:29 51°27.895 3°4.599 6.88316 2.871893 30.514281 1.780665
2003-02-26 11:39:28 51°27.954 3°4.442 6.969197 2.862843 30.404918 1.241315
2003-02-26 11:40:28 51°28.018 3°4.286 6.577033 2.881574 30.605233 1.679537
2003-02-26 11:41:29 51°28.07 3°4.144 7.207515 2.86842 30.456134 1.308734
2003-02-26 11:42:28 51°28.115 3°4.023 7.341616 2.860633 30.385665 1.308734
2003-02-26 11:43:29 51°28.17 3°3.909 6.935071 2.856845 30.348743 1.578409
2003-02-26 11:44:29 51°28.224 3°3.806 7.647268 2.85253 30.284977 1.275024
2003-02-26 11:45:29 51°28.254 3°3.734 6.723027 2.848953 30.229073 1.005349
2003-02-26 11:46:29 51°28.264 3°3.691 6.992297 2.846006 30.198719 0.93793
2003-02-26 11:47:29 51°28.263 3°3.666 6.113914 2.846217 30.203652 1.106477
2003-02-26 11:48:29 51°28.254 3°3.653 5.825772 2.843271 30.170001 1.173896
2003-02-26 11:49:29 51°28.243 3°3.647 6.135335 2.841061 30.154016 1.173896
2003-02-26 11:50:28 51°28.227 3°3.632 6.779457 2.841166 30.165124 1.072768
2003-02-26 11:51:29 51°28.213 3°3.602 6.303363 2.843481 30.188106 1.106477
2003-02-26 11:52:29 51°28.2 3°3.573 6.439528 2.846322 30.211475 1.005349
2003-02-26 11:53:28 51°28.187 3°3.549 6.298594 2.844323 30.190547 0.93793
2003-02-26 11:54:29 51°28.181 3°3.517 5.632978 2.842113 30.180329 1.173896
2003-02-26 11:55:29 51°28.18 3°3.489 5.987732 2.836116 30.124913 1.005349
2003-02-26 11:56:29 51°28.179 3°3.467 5.829876 2.835484 30.119987 0.904221
2003-02-26 11:57:29 51°28.178 3°3.453 5.545158 2.836326 30.123265 1.005349
2003-02-26 11:58:29 51°28.177 3°3.445 6.082268 2.838115 30.141743 1.140187
2003-02-26 11:59:28 51°28.177 3°3.44 6.368604 2.840956 30.168424 1.173896
2003-02-26 12:00:29 51°28.178 3°3.436 6.132397 2.84285 30.188954 1.140187
2003-02-26 12:01:29 51°28.178 3°3.435 6.104746 2.844744 30.200416 1.106477
2003-02-26 12:02:29 51°28.18 3°3.434 6.398967 2.846322 30.208179 1.173896
2003-02-26 12:03:29 51°28.181 3°3.433 6.04452 2.850847 30.257837 1.207606
2003-02-26 12:04:29 51°28.183 3°3.434 6.351183 2.852004 30.252409 1.106477
2003-02-26 12:05:29 51°28.161 3°3.424 6.31881 2.85232 30.242089 1.039059
2003-02-26 12:06:29 51°28.112 3°3.326 6.897237 2.844849 30.178592 0.803093
2003-02-26 12:07:29 51°28.054 3°3.031 6.635471 2.832117 30.087951 0.97164
2003-02-26 12:08:29 51°27.993 3°2.692 6.625735 2.831802 30.07111 0.93793
2003-02-26 12:09:29 51°27.933 3°2.354 6.409581 2.834852 30.028127 0.735674
2003-02-26 12:10:29 51°27.882 3°2.01 4.947733 2.839272 30.123221 1.140187
2003-02-26 12:11:29 51°27.834 3°1.663 3.718914 2.848952 30.201076 1.039059
2003-02-26 12:12:29 51°27.787 3°1.318 3.686554 2.836221 30.081785 1.005349
2003-02-26 12:13:29 51°27.741 3°0.975 3.712495 2.846743 30.188403 0.97164
2003-02-26 12:14:29 51°27.693 3°0.632 3.751981 2.852214 30.224392 1.072768
2003-02-26 12:15:29 51°27.648 3°0.288 3.770189 2.863368 30.336606 0.97164
2003-02-26 12:16:29 51°27.6 2°59.943 3.832842 2.85958 30.250369 0.668255
2003-02-26 12:17:29 51°27.552 2°59.598 3.875143 2.892095 30.564445 0.97164
2003-02-26 12:18:29 51°27.505 2°59.253 3.862182 2.885045 30.48307 0.701965
2003-02-26 12:19:29 51°27.458 2°58.908 3.939856 2.887781 30.50587 0.836802
2003-02-26 12:20:29 51°27.408 2°58.563 4.00002 2.898619 30.557709 0.533418
2003-02-26 12:21:29 51°27.359 2°58.22 4.045709 2.911668 30.678876 0.533418
2003-02-26 12:22:29 51°27.309 2°57.877 4.03129 2.928191 30.817003 0.465999
2003-02-26 12:23:29 51°27.258 2°57.534 4.050086 2.930927 30.86793 0.465999
2003-02-26 12:24:29 51°27.205 2°57.188 4.167881 2.961027 31.148417 0.499708
2003-02-26 12:25:29 51°27.151 2°56.842 4.104227 2.98534 31.371947 0.499708
2003-02-26 12:26:28 51°27.098 2°56.502 4.156163 2.976815 31.31757 0.465999
2003-02-26 12:27:28 51°27.045 2°56.154 4.236553 3.001759 31.534696 0.600836
2003-02-26 12:28:29 51°26.991 2°55.802 4.230752 3.004391 31.53563 0.364871
2003-02-26 12:29:29 51°26.937 2°55.455 4.338624 3.019021 31.674826 0.39858
2003-02-26 12:30:29 51°26.883 2°55.108 4.344774 3.052811 31.977907 0.634546
2003-02-26 12:31:29 51°26.831 2°54.762 4.386832 3.048705 31.932067 0.432289
2003-02-26 12:32:28 51°26.781 2°54.42 4.40936 3.051863 31.917509 0.331161
2003-02-26 12:33:28 51°26.727 2°54.072 4.49965 3.065969 32.049072 0.364871
2003-02-26 12:34:29 51°26.67 2°53.716 4.581641 3.088075 32.205292 0.39858
2003-02-26 12:35:29 51°26.613 2°53.36 4.602671 3.10734 32.377807 0.600836
2003-02-26 12:36:29 51°26.556 2°53.007 4.662353 3.1165 32.462784 0.701965
2003-02-26 12:37:28 51°26.499 2°52.654 4.664392 3.124079 32.494244 0.634546
2003-02-26 12:38:29 51°26.448 2°52.287 4.666227 3.129448 32.52425 0.39858
2003-02-26 12:39:29 51°26.4 2°51.928 4.653837 3.127449 32.545934 0.803093
2003-02-26 12:40:28 51°26.35 2°51.573 4.672345 3.133239 32.62558 1.342443
2003-02-26 12:41:28 51°26.303 2°51.213 4.665412 3.133344 32.596609 0.803093
2003-02-26 12:42:28 51°26.256 2°50.856 4.610377 3.116289 32.441456 0.533418
2003-02-26 12:43:29 51°26.209 2°50.493 4.582203 3.119026 32.486749 0.533418
2003-02-26 12:44:29 51°26.163 2°50.138 4.61951 3.117447 32.500389 0.567127
2003-02-26 12:45:29 51°26.117 2°49.782 4.582713 3.116816 32.482769 0.600836
2003-02-26 12:46:28 51°26.074 2°49.445 4.634049 3.122922 32.537685 0.600836
2003-02-26 12:47:29 51°26.045 2°49.188 4.654398 3.13166 32.59703 0.701965
2003-02-26 12:48:29 51°26.02 2°48.959 4.691204 3.136713 32.642309 0.634546
2003-02-26 12:49:29 51°25.994 2°48.731 4.722793 3.141556 32.66615 0.600836
2003-02-26 12:50:29 51°25.979 2°48.503 4.727581 3.148505 32.71936 0.836802
2003-02-26 12:51:29 51°25.992 2°48.382 4.684579 3.151137 32.758288 1.072768
2003-02-26 12:52:29 51°26.009 2°48.355 4.714082 3.150611 32.760877 1.039059
2003-02-26 12:53:29 51°26.035 2°48.349 4.721723 3.151137 32.765207 1.612118
2003-02-26 12:54:29 51°26.062 2°48.404 4.730586 3.152822 32.769028 1.477281
2003-02-26 12:55:29 51°26.041 2°48.467 4.700988 3.153769 32.768691 0.93793
2003-02-26 12:56:29 51°26.034 2°48.471 4.666482 3.149769 32.766753 1.342443
2003-02-26 12:57:29 51°26.03 2°48.463 4.649197 3.147242 32.765351 2.555982
2003-02-26 12:58:29 51°26.026 2°48.452 4.663372 3.146611 32.763267 2.522272
2003-02-26 12:59:28 51°26.022 2°48.437 4.693854 3.147874 32.763103 2.252597
2003-02-26 13:00:29 51°26.017 2°48.419 4.731706 3.150716 32.757764 1.679537
2003-02-26 13:01:29 51°26.013 2°48.402 4.711331 3.152295 32.762106 1.814375
2003-02-26 13:02:29 51°26.008 2°48.384 4.69416 3.150295 32.760701 2.050341
2003-02-26 13:03:29 51°26.002 2°48.367 4.677035 3.149558 32.766925 2.353725
2003-02-26 13:04:29 51°25.995 2°48.35 4.665769 3.14819 32.76501 2.353725
2003-02-26 13:05:29 51°25.988 2°48.333 4.678768 3.147769 32.763622 2.387435
2003-02-26 13:06:29 51°25.965 2°48.321 4.714235 3.149242 32.764152 2.218888
2003-02-26 13:07:29 51°25.933 2°48.339 4.715457 3.150822 32.764166 1.275024
2003-02-26 13:08:29 51°25.856 2°48.372 4.75574 3.153769 32.757458 1.005349
2003-02-26 13:09:29 51°25.741 2°48.199 4.734558 3.153769 32.750549 0.668255
2003-02-26 13:10:29 51°25.597 2°47.926 4.714337 3.151453 32.747229 0.97164
2003-02-26 13:11:29 51°25.445 2°47.644 4.732012 3.151243 32.758635 1.039059
2003-02-26 13:12:29 51°25.287 2°47.368 4.724372 3.153664 32.783911 1.039059
2003-02-26 13:13:29 51°25.131 2°47.098 4.635732 3.134713 32.625305 0.39858
2003-02-26 13:14:29 51°24.975 2°46.828 4.577812 3.122922 32.548029 0.432289
2003-02-26 13:15:29 51°24.818 2°46.56 4.578731 3.116605 32.492395 0.432289
2003-02-26 13:16:29 51°24.661 2°46.293 4.5438 3.112499 32.463961 0.567127
2003-02-26 13:17:29 51°24.504 2°46.024 4.537313 3.10513 32.407285 0.634546
2003-02-26 13:18:29 51°24.346 2°45.756 4.49101 3.100393 32.376652 0.803093
2003-02-26 13:19:29 51°24.19 2°45.485 4.507368 3.097656 32.349326 0.735674
2003-02-26 13:20:29 51°24.031 2°45.213 4.54947 3.116395 32.529632 1.005349
2003-02-26 13:21:29 51°23.874 2°44.943 4.544567 3.104709 32.371485 0.836802
2003-02-26 13:22:29 51°23.715 2°44.671 4.574187 3.108288 32.441176 0.97164
2003-02-26 13:23:29 51°23.558 2°44.397 4.558664 3.107867 32.404486 0.97164
2003-02-26 13:24:29 51°23.401 2°44.124 4.527401 3.113131 32.484176 1.241315
2003-02-26 13:25:29 51°23.244 2°43.852 4.599915 3.111972 32.389164 0.701965
2003-02-26 13:26:29 51°23.088 2°43.583 4.530518 3.096918 32.285052 0.97164
2003-02-26 13:27:29 51°22.933 2°43.312 4.431267 3.077653 32.120897 0.701965
2003-02-26 13:28:29 51°22.777 2°43.04 4.422567 3.072601 32.126606 0.904221
2003-02-26 13:29:29 51°22.621 2°42.768 4.362553 3.072285 32.157209 1.140187
2003-02-26 13:30:29 51°22.465 2°42.494 4.36783 3.072391 32.16872 1.275024
2003-02-26 13:31:29 51°22.31 2°42.221 4.394974 3.080075 32.243109 1.376153
2003-02-26 13:32:29 51°22.155 2°41.946 4.389956 3.080497 32.248845 1.207606
2003-02-26 13:33:29 51°22.041 2°41.625 4.429169 3.078917 32.231419 1.612118
2003-02-26 13:34:29 51°21.957 2°41.277 4.424153 3.076286 32.241346 1.612118
2003-02-26 13:35:29 51°21.875 2°40.93 4.418984 3.077759 32.207708 1.207606
2003-02-26 13:36:29 51°21.794 2°40.581 4.44631 3.08197 32.248718 2.421144
2003-02-26 13:37:29 51°21.712 2°40.23 4.423386 3.089128 32.282564 1.848084
2003-02-26 13:38:29 51°21.63 2°39.875 4.389495 3.090814 32.363163 2.454853
2003-02-26 13:39:29 51°21.548 2°39.517 4.361375 3.091445 32.369617 2.454853
2003-02-26 13:40:29 51°21.466 2°39.157 4.38084 3.090814 32.391656 2.758238
2003-02-26 13:41:29 51°21.383 2°38.796 4.460839 3.092182 32.398879 2.859366
2003-02-26 13:42:29 51°21.302 2°38.432 4.45071 3.097025 32.423887 3.499845
2003-02-26 13:43:29 51°21.22 2°38.066 4.383861 3.099236 32.45728 2.893076
2003-02-26 13:44:29 51°21.139 2°37.701 4.490294 3.118607 32.614909 2.252597
2003-02-26 13:45:29 51°21.059 2°37.337 4.47204 3.126503 32.696749 2.353725
2003-02-26 13:46:29 51°21.01 2°36.959 4.469431 3.12903 32.739055 2.421144
2003-02-26 13:47:29 51°21.006 2°36.568 4.659701 3.141979 32.814015 2.016631
2003-02-26 13:48:29 51°21.017 2°36.175 4.643842 3.159877 32.907533 2.252597
2003-02-26 13:49:29 51°21.036 2°35.779 4.683355 3.159772 32.927213 2.421144
2003-02-26 13:50:29 51°21.065 2°35.386 4.692325 3.172722 32.986808 2.08405
2003-02-26 13:51:29 51°21.103 2°34.995 4.904831 3.180934 33.036943 1.241315
2003-02-26 13:52:29 51°21.135 2°34.608 4.965291 3.200729 33.157329 1.140187
2003-02-26 13:53:29 51°21.164 2°34.226 4.933926 3.222841 33.315033 0.93793
2003-02-26 13:54:29 51°21.2 2°33.843 4.825143 3.212944 33.338688 2.522272
2003-02-26 13:55:29 51°21.238 2°33.457 4.855648 3.21347 33.335978 2.252597
2003-02-26 13:56:29 51°21.279 2°33.072 4.881108 3.219472 33.372528 1.881794
2003-02-26 13:57:29 51°21.32 2°32.687 5.060611 3.23653 33.455257 1.612118
2003-02-26 13:58:29 51°21.361 2°32.304 5.160894 3.265804 33.668464 1.915503
2003-02-26 13:59:29 51°21.401 2°31.922 5.165093 3.273702 33.741176 2.555982
2003-02-26 14:00:29 51°21.44 2°31.538 5.264352 3.284865 33.778176 1.915503
2003-02-26 14:01:29 51°21.476 2°31.151 5.268543 3.287182 33.807233 2.286306
2003-02-26 14:02:29 51°21.484 2°30.76 5.275713 3.284865 33.763268 1.814375
2003-02-26 14:03:29 51°21.35 2°30.439 5.352664 3.285812 33.71194 1.072768
2003-02-26 14:04:29 51°21.16 2°30.19 5.394859 3.297923 33.81999 1.207606
2003-02-26 14:05:29 51°20.951 2°29.995 5.454901 3.308875 33.83252 0.364871
2003-02-26 14:06:28 51°20.74 2°29.821 5.406196 3.309401 33.86907 0.836802
2003-02-26 14:07:29 51°20.519 2°29.652 5.336777 3.307085 33.88301 1.173896
2003-02-26 14:08:29 51°20.294 2°29.53 5.313065 3.301188 33.876421 1.848084
2003-02-26 14:09:29 51°20.166 2°29.729 5.321643 3.301398 33.884962 1.645828
2003-02-26 14:10:29 51°20.139 2°29.876 5.319624 3.303715 33.901681 1.713247
2003-02-26 14:11:29 51°20.107 2°29.915 5.327243 3.303821 33.907271 1.814375
2003-02-26 14:12:29 51°20.103 2°29.906 5.296007 3.303821 33.912541 2.690819
2003-02-26 14:13:29 51°20.101 2°29.902 5.307867 3.302557 33.909572 3.432426
2003-02-26 14:14:29 51°20.105 2°29.9 5.311198 3.304453 33.905682 2.522272
2003-02-26 14:15:29 51°20.114 2°29.897 5.354479 3.304663 33.907202 2.825657
2003-02-26 14:16:29 51°20.124 2°29.895 5.359471 3.307822 33.908922 2.454853
2003-02-26 14:17:29 51°20.134 2°29.896 5.345049 3.309191 33.908704 2.421144
2003-02-26 14:18:29 51°20.141 2°29.9 5.328252 3.305716 33.910408 2.893076
2003-02-26 14:19:29 51°20.142 2°29.906 5.334709 3.304874 33.906087 3.061623
2003-02-26 14:20:29 51°20.136 2°29.912 5.366228 3.306664 33.90101 2.421144
2003-02-26 14:21:29 51°20.124 2°29.914 5.32467 3.307296 33.907319 2.488563
2003-02-26 14:22:29 51°20.107 2°29.909 5.334002 3.305084 33.905851 2.488563
2003-02-26 14:23:29 51°20.085 2°29.893 5.341669 3.306243 33.897973 1.915503
2003-02-26 14:24:29 51°20.052 2°29.853 5.34399 3.305821 33.908095 2.488563
2003-02-26 14:25:29 51°19.974 2°29.735 5.319927 3.304979 33.903775 2.522272
2003-02-26 14:26:29 51°19.854 2°29.551 5.313418 3.304558 33.905125 2.421144
2003-02-26 14:27:29 51°19.91 2°29.307 5.337887 3.304874 33.912234 2.6234
2003-02-26 14:28:29 51°20.065 2°29.319 5.312661 3.307191 33.926308 2.960494
2003-02-26 14:29:29 51°20.248 2°29.447 5.297875 3.302557 33.906936 3.702101
2003-02-26 14:30:29 51°20.451 2°29.588 5.288284 3.301925 33.891835 3.735811
2003-02-26 14:31:29 51°20.655 2°29.73 5.290455 3.299819 33.880143 3.938067
2003-02-26 14:32:29 51°20.858 2°29.873 5.312409 3.299187 33.869436 3.499845
2003-02-26 14:33:29 51°21.059 2°30.017 5.284296 3.298028 33.84835 3.23017
2003-02-26 14:34:29 51°21.249 2°30.187 5.255766 3.294448 33.823364 4.241452
2003-02-26 14:35:29 51°21.429 2°30.374 5.161501 3.282443 33.754938 4.039195
2003-02-26 14:36:29 51°21.561 2°30.639 5.145718 3.273386 33.718244 3.027913
2003-02-26 14:37:29 51°21.621 2°30.961 5.182692 3.269174 33.71138 3.567264
2003-02-26 14:38:29 51°21.583 2°31.298 5.234196 3.281916 33.745427 2.185178
2003-02-26 14:39:29 51°21.514 2°31.624 5.099559 3.271596 33.717984 2.454853
2003-02-26 14:40:29 51°21.405 2°31.922 5.158416 3.270648 33.70013 2.488563
2003-02-26 14:41:29 51°21.287 2°32.214 5.018445 3.258854 33.589905 1.881794
2003-02-26 14:42:29 51°21.158 2°32.499 4.857935 3.226 33.394928 3.398717
2003-02-26 14:43:29 51°21.026 2°32.784 4.8901 3.214944 33.347665 3.904358
2003-02-26 14:44:29 51°20.892 2°33.068 4.819345 3.215997 33.344873 3.80323
2003-02-26 14:45:29 51°20.76 2°33.354 4.881514 3.214418 33.367042 4.477418
2003-02-26 14:46:29 51°20.62 2°33.636 5.004856 3.224526 33.344806 2.926785
2003-02-26 14:47:29 51°20.463 2°33.893 4.966814 3.232212 33.342131 1.949212
2003-02-26 14:48:29 51°20.307 2°34.143 4.928443 3.197464 33.098149 3.398717
2003-02-26 14:49:29 51°20.151 2°34.395 4.835058 3.202413 33.152296 3.129042
2003-02-26 14:50:29 51°19.998 2°34.643 4.796862 3.193253 33.142899 3.702101
2003-02-26 14:51:29 51°19.84 2°34.884 4.781037 3.191463 33.141505 4.409999
2003-02-26 14:52:29 51°19.682 2°35.123 4.714489 3.186199 33.122815 4.106614
2003-02-26 14:53:29 51°19.522 2°35.366 4.663219 3.178724 33.098709 4.747093
2003-02-26 14:54:29 51°19.36 2°35.614 4.736391 3.174512 33.083355 4.477418
2003-02-26 14:55:29 51°19.193 2°35.848 4.496174 3.17388 32.994052 3.567264
2003-02-26 14:56:29 51°19.02 2°36.074 4.643077 3.133136 32.766566 4.848221
2003-02-26 14:57:29 51°18.842 2°36.292 4.717189 3.141557 32.74919 3.600973
2003-02-26 14:58:29 51°18.651 2°36.478 4.462731 3.137556 32.626997 3.263879
2003-02-26 14:59:29 51°18.446 2°36.623 4.31125 3.099025 32.448787 4.578546
2003-02-26 15:00:29 51°18.235 2°36.753 4.292123 3.084077 32.366231 4.679674
2003-02-26 15:01:29 51°18.005 2°36.768 4.361836 3.085235 32.371888 4.34258
2003-02-26 15:02:28 51°17.774 2°36.76 4.340879 3.086182 32.339684 4.275161
2003-02-26 15:03:29 51°17.533 2°36.748 4.281043 3.079129 32.320027 5.320153
2003-02-26 15:04:29 51°17.297 2°36.723 4.224026 3.079024 32.343017 4.983059
2003-02-26 15:05:29 51°17.06 2°36.664 4.209802 3.07155 32.310656 5.556118
2003-02-26 15:06:28 51°16.856 2°36.606 4.351333 3.063865 32.242869 4.645965
2003-02-26 15:07:28 51°16.724 2°36.559 4.487942 3.087654 32.197871 2.522272
2003-02-26 15:08:28 51°16.643 2°36.537 4.480937 3.086917 32.234715 3.398717
2003-02-26 15:09:29 51°16.597 2°36.531 4.471528 3.088286 32.248809 3.533554
2003-02-26 15:10:29 51°16.562 2°36.536 4.472807 3.089444 32.26819 3.80323
2003-02-26 15:11:29 51°16.553 2°36.566 4.462373 3.089128 32.270546 4.005486
2003-02-26 15:12:28 51°16.572 2°36.619 4.465595 3.087023 32.241073 3.567264
2003-02-26 15:13:29 51°16.598 2°36.693 4.443292 3.084707 32.231454 4.106614
2003-02-26 15:14:28 51°16.603 2°36.729 4.453575 3.081549 32.202663 3.870648
2003-02-26 15:15:29 51°16.599 2°36.741 4.457821 3.082391 32.201261 3.702101
2003-02-26 15:16:28 51°16.594 2°36.744 4.455877 3.081022 32.188871 3.567264
2003-02-26 15:17:28 51°16.589 2°36.741 4.444673 3.080075 32.179635 3.634683
2003-02-26 15:18:29 51°16.584 2°36.732 4.463345 3.080075 32.175355 3.634683
2003-02-26 15:19:29 51°16.58 2°36.72 4.459662 3.080706 32.177519 3.702101
2003-02-26 15:20:29 51°16.576 2°36.706 4.439761 3.07818 32.162016 3.702101
2003-02-26 15:21:29 51°16.574 2°36.689 4.436179 3.075653 32.143937 3.735811
2003-02-26 15:22:29 51°16.571 2°36.671 4.441296 3.077338 32.159128 3.735811
2003-02-26 15:23:28 51°16.569 2°36.651 4.445901 3.078917 32.1731 3.836939
2003-02-26 15:24:29 51°16.566 2°36.63 4.437663 3.078706 32.174947 3.836939
2003-02-26 15:25:29 51°16.56 2°36.63 4.441603 3.077548 32.16841 3.870648
2003-02-26 15:26:29 51°16.483 2°36.636 4.428196 3.077338 32.162551 3.904358
2003-02-26 15:27:29 51°16.304 2°36.522 4.363219 3.077022 32.1906 4.409999
2003-02-26 15:28:29 51°16.075 2°36.398 4.361529 3.083445 32.305372 5.050477
2003-02-26 15:29:29 51°15.845 2°36.273 4.352972 3.091761 32.409558 5.758375
2003-02-26 15:30:29 51°15.615 2°36.146 4.304482 3.092288 32.419989 5.724665
2003-02-26 15:31:28 51°15.389 2°36.03 4.245997 3.082182 32.378849 6.533691
2003-02-26 15:32:29 51°15.154 2°35.912 4.194599 3.074603 32.324516 6.264016
2003-02-26 15:33:29 51°14.923 2°35.804 4.189564 3.058812 32.18407 5.893212
2003-02-26 15:34:29 51°14.691 2°35.699 4.229776 3.067444 32.262029 6.466272
2003-02-26 15:35:29 51°14.459 2°35.593 4.222639 3.073655 32.329953 6.769657
2003-02-26 15:36:29 51°14.228 2°35.509 4.169423 3.076077 32.352921 6.533691
2003-02-26 15:37:29 51°13.996 2°35.48 4.259289 3.043548 32.005678 5.050477
2003-02-26 15:38:29 51°13.809 2°35.633 4.300431 3.0466 31.940951 4.34258
2003-02-26 15:39:29 51°13.728 2°35.938 4.210623 3.048285 31.99383 5.623537
2003-02-26 15:40:29 51°13.771 2°36.26 4.180933 3.039338 31.925904 4.747093
2003-02-26 15:41:29 51°13.835 2°36.58 4.111635 3.029233 31.900042 5.758375
2003-02-26 15:42:29 51°13.89 2°36.905 4.001617 3.013865 31.785283 6.702238
2003-02-26 15:43:29 51°13.942 2°37.231 3.944447 3.003551 31.733456 7.073042
2003-02-26 15:44:29 51°13.985 2°37.56 3.993578 2.991657 31.615115 6.533691
2003-02-26 15:45:29 51°14.025 2°37.889 4.032526 2.992077 31.581645 6.095469
2003-02-26 15:46:29 51°14.039 2°38.225 4.144288 2.998708 31.590817 5.45499
2003-02-26 15:47:29 51°14.019 2°38.558 4.132463 3.003759 31.531686 3.938067
2003-02-26 15:48:29 51°13.903 2°38.841 4.005894 2.988603 31.486785 4.679674
2003-02-26 15:49:29 51°13.686 2°38.93 4.036491 2.984499 31.467819 4.308871
2003-02-26 15:50:29 51°13.455 2°38.826 4.088432 2.991867 31.549403 5.016768
2003-02-26 15:51:28 51°13.239 2°38.645 4.079736 2.992813 31.522214 5.252734
2003-02-26 15:52:29 51°13.022 2°38.439 4.018516 2.992498 31.541461 5.893212
2003-02-26 15:53:29 51°12.811 2°38.222 5.177837 2.996182 31.638056 7.376426
2003-02-26 15:54:29 51°12.601 2°38.002 5.13322 2.995972 31.67064 6.870785
2003-02-26 15:55:29 51°12.391 2°37.782 5.464315 2.997551 31.688226 6.870785
2003-02-26 15:56:29 51°12.181 2°37.562 5.328605 3.002393 31.740501 7.106751
2003-02-26 15:57:29 51°11.971 2°37.341 5.643319 3.009971 31.75871 6.938204
2003-02-26 15:58:29 51°11.76 2°37.126 5.227881 3.045233 32.087229 11.69123
2003-02-26 15:59:29 51°11.549 2°36.911 5.191439 3.060814 32.33747 15.129589
2003-02-26 16:00:29 51°11.338 2°36.695 5.483491 3.068709 32.407909 12.80364
2003-02-26 16:01:29 51°11.126 2°36.48 5.39627 3.076078 32.452937 10.443982
2003-02-26 16:02:29 51°10.908 2°36.281 5.411436 3.083973 32.509259 9.095606
2003-02-26 16:03:29 51°10.691 2°36.086 5.258645 3.10966 32.723755 9.567537
2003-02-26 16:04:29 51°10.461 2°35.966 5.598628 3.126083 32.857891 8.893349
2003-02-26 16:05:29 51°10.224 2°35.862 5.607268 3.144928 32.969723 7.949486
2003-02-26 16:06:29 51°10.003 2°35.917 5.337533 3.086813 32.3108 6.365144
2003-02-26 16:07:29 51°9.84 2°36.143 5.406196 3.065864 32.117992 6.02805
2003-02-26 16:08:29 51°9.792 2°36.464 5.231215 3.07534 32.319235 6.5674
2003-02-26 16:09:29 51°9.845 2°36.776 5.071249 3.084183 32.453328 7.207879
2003-02-26 16:10:29 51°9.934 2°37.08 5.24723 3.076287 32.358839 7.814648
2003-02-26 16:11:29 51°10.008 2°37.395 5.600185 3.06776 32.263973 7.275298
2003-02-26 16:12:29 51°10.083 2°37.709 5.222524 3.057233 32.126061 6.837076
2003-02-26 16:13:29 51°10.156 2°38.022 5.336323 3.053444 32.104389 6.803366
2003-02-26 16:14:29 51°10.23 2°38.335 5.629112 3.046391 32.094681 6.803366
2003-02-26 16:15:29 51°10.302 2°38.65 4.923823 3.041444 32.104352 7.780939
2003-02-26 16:16:29 51°10.377 2°38.964 5.042572 3.029655 32.045343 8.252871
2003-02-26 16:17:29 51°10.45 2°39.279 5.184917 3.006288 31.810922 7.578683
2003-02-26 16:18:29 51°10.524 2°39.591 5.124313 2.989973 31.656166 7.410136
2003-02-26 16:19:29 51°10.596 2°39.901 4.88502 2.970396 31.469009 7.511264
2003-02-26 16:20:29 51°10.668 2°40.211 4.884461 2.952399 31.26697 7.342717
2003-02-26 16:21:29 51°10.74 2°40.522 4.835058 2.948399 31.179632 7.073042
2003-02-26 16:22:29 51°10.812 2°40.834 4.801288 2.941242 31.077568 7.005623
2003-02-26 16:23:29 51°10.883 2°41.148 4.984925 2.936611 31.008451 6.870785
2003-02-26 16:24:29 51°10.953 2°41.462 4.890557 2.930507 30.93312 7.17417
2003-02-26 16:25:29 51°11.023 2°41.778 5.002422 2.927245 30.910149 7.949486
2003-02-26 16:26:29 51°11.075 2°42.041 4.87811 2.926297 30.90496 7.983195
2003-02-26 16:27:29 51°11.07 2°42.121 4.675811 2.921982 30.853827 7.578683
2003-02-26 16:28:29 51°11.072 2°42.109 4.798286 2.916931 30.792458 6.769657
2003-02-26 16:29:29 51°11.077 2°42.089 4.811716 2.917562 30.798149 6.870785
2003-02-26 16:30:29 51°11.083 2°42.065 4.602569 2.920298 30.807532 6.466272
2003-02-26 16:31:29 51°11.09 2°42.04 4.765107 2.921351 30.833955 6.735947
2003-02-26 16:32:29 51°11.096 2°42.015 4.895028 2.920404 30.82042 6.466272
2003-02-26 16:33:29 51°11.102 2°41.991 4.62502 2.922087 30.826699 6.499982
2003-02-26 16:34:29 51°11.108 2°41.968 5.000749 2.921245 30.811899 5.960631
2003-02-26 16:35:29 51°11.112 2°41.946 4.835669 2.91893 30.783282 5.825794
2003-02-26 16:36:29 51°11.131 2°41.985 4.735576 2.920824 30.798676 6.331435
2003-02-26 16:37:29 51°11.147 2°42.182 4.895434 2.917983 30.788064 6.803366
2003-02-26 16:38:29 51°11.172 2°42.494 4.892945 2.916299 30.770951 6.837076
2003-02-26 16:39:29 51°11.189 2°42.83 5.205543 2.915247 30.766182 6.904494
2003-02-26 16:40:29 51°11.205 2°43.169 5.024883 2.909775 30.721558 7.309007
2003-02-26 16:41:29 51°11.22 2°43.508 41.062774 2.904513 30.676027 7.612392
2003-02-26 16:42:29 51°11.235 2°43.848 40.948294 2.903881 30.647093 8.353999
2003-02-26 16:43:29 51°11.269 2°44.18 45.126909 2.903249 30.596693 3.533554
2003-02-26 16:44:29 51°11.348 2°44.497 41.784706 2.884834 30.486402 8.118033
2003-02-26 16:45:29 51°11.42 2°44.818 40.709584 2.842323 30.062184 7.241589
2003-02-26 16:46:29 51°11.49 2°45.14 42.199998 2.855265 30.2025 6.668529
2003-02-26 16:47:29 51°11.56 2°45.464 43.907058 2.863368 30.282229 6.533691
2003-02-26 16:48:29 51°11.631 2°45.787 41.659687 2.855686 30.20659 6.297725
2003-02-26 16:49:29 51°11.708 2°46.107 39.87771 2.849372 30.130495 5.926922
2003-02-26 16:50:29 51°11.782 2°46.425 38.380722 2.849688 30.144003 5.792084
2003-02-26 16:51:29 51°11.864 2°46.739 44.058638 2.84106 30.035214 5.4887
2003-02-26 16:52:29 51°11.948 2°47.054 38.972651 2.844743 30.072428 5.758375
2003-02-26 16:53:29 51°12.04 2°47.363 43.416868 2.833905 29.958335 5.758375
2003-02-26 16:54:29 51°12.134 2°47.669 40.156977 2.826434 29.876151 5.690956
2003-02-26 16:55:29 51°12.23 2°47.977 40.023271 2.820542 29.796973 5.657247
2003-02-26 16:56:29 51°12.326 2°48.287 40.649621 2.809704 29.71359 5.893212
2003-02-26 16:57:29 51°12.425 2°48.595 42.381032 2.809179 29.725251 6.095469
2003-02-26 16:58:29 51°12.522 2°48.903 44.741835 2.800656 29.609758 6.129178
2003-02-26 16:59:29 51°12.621 2°49.21 44.515453 2.79792 29.570647 5.758375
2003-02-26 17:00:29 51°12.72 2°49.517 47.00546 2.786031 29.439429 5.657247
2003-02-26 17:01:29 51°12.827 2°49.816 40.226009 2.784769 29.459199 5.556118
2003-02-26 17:02:29 51°12.937 2°50.112 43.189662 2.786242 29.477973 5.589828
2003-02-26 17:03:29 51°13.049 2°50.404 42.412298 2.776878 29.370447 5.387571
2003-02-26 17:04:29 51°13.165 2°50.692 43.563325 2.784769 29.453582 5.286443
2003-02-26 17:05:29 51°13.28 2°50.982 40.306716 2.778667 29.380082 5.084187
2003-02-26 17:06:29 51°13.395 2°51.274 39.653855 2.784453 29.445092 5.387571
2003-02-26 17:07:29 51°13.509 2°51.569 40.769873 2.776878 29.375249 5.556118
2003-02-26 17:08:29 51°13.626 2°51.874 43.094698 2.78235 29.46873 5.219024
2003-02-26 17:09:29 51°13.738 2°52.176 43.001453 2.772039 29.347646 5.185315
2003-02-26 17:10:29 51°13.85 2°52.46 42.912783 2.77751 29.429925 5.050477
2003-02-26 17:11:29 51°13.963 2°52.747 44.031386 2.761624 29.252538 4.983059
2003-02-26 17:12:29 51°14.076 2°53.039 41.616042 2.766674 29.301063 5.151606
2003-02-26 17:13:29 51°14.184 2°53.333 40.38156 2.757731 29.183223 4.88193
2003-02-26 17:14:29 51°14.277 2°53.633 40.858533 2.757626 29.173242 4.780802
2003-02-26 17:15:29 51°14.378 2°53.897 41.858917 2.762781 29.253261 5.117896
2003-02-26 17:16:29 51°14.447 2°54.176 41.315232 2.756574 29.166552 4.848221
2003-02-26 17:17:29 51°14.469 2°54.48 41.837195 2.756889 29.15989 4.780802
2003-02-26 17:18:29 51°14.445 2°54.786 41.270792 2.73122 28.859477 4.983059
2003-02-26 17:19:29 51°14.361 2°55.073 43.325535 2.741424 28.968746 5.623537
2003-02-26 17:20:29 51°14.249 2°55.282 42.855057 2.694085 28.376048 6.331435
2003-02-26 17:21:29 51°14.151 2°55.385 39.905057 2.55862 26.774153 7.544973
2003-02-26 17:22:29 51°14.062 2°55.453 42.370739 2.545476 26.619491 8.455127
2003-02-26 17:23:29 51°13.981 2°55.513 43.478139 2.462516 25.6645 8.792221
2003-02-26 17:24:29 51°13.904 2°55.569 31.279198 0.043456 0.349126 -0.781249
2003-02-26 17:25:29 51°13.827 2°55.625 26.393895 0.985849 7.142711 -0.814958
2003-02-26 17:26:29 51°13.757 2°55.694 29.823924 0.174002 1.126245 -0.71383
2003-02-26 17:27:29 51°13.708 2°55.78 33.052268 0.153291 0.98891 -0.781249